Time;durP1;ratioP1;P1;durP2;ratioP2;P2;SDS_P1;SDS_P2;PMS_P1;PMS_P2;Temp;Humidity;BMP_temperature;BMP_pressure;BME280_temperature;BME280_humidity;BME280_pressure;Samples;Min_cycle;Max_cycle;Signal;HPM_P1;HPM_P2
2022/03/08 00:00:26;;;;;;;;;;;;;;;4.56;40.04;101218.44;4972206;28;6861;-71
2022/03/08 00:02:54;;;;;;;;;;;;;;;4.56;40.98;101208.28;4968797;28;6812;-71
2022/03/08 00:05:20;;;;;;;;;;;;;;;4.56;40.51;101215.91;4956549;28;6796;-71
2022/03/08 00:07:47;;;;;;;;;;;;;;;4.55;40.74;101211.56;4985778;28;6800;-71
2022/03/08 00:10:14;;;;;;;;;;;;;;;4.55;40.58;101211.56;4964705;28;6800;-71
2022/03/08 00:12:40;;;;;;;;;;;;;;;4.54;40.42;101214.88;4967397;28;7221;-71
2022/03/08 00:15:17;;;;;;;;;;;;;;;4.52;41.40;101208.75;4952591;28;7494;-71
2022/03/08 00:17:42;;;;;;;;;;;;;;;4.51;40.37;101206.97;4969199;28;6828;-71
2022/03/08 00:20:10;;;;;;;;;;;;;;;4.48;40.72;101209.25;4970653;28;7339;-71
2022/03/08 00:22:37;;;;;;;;;;;;;;;4.45;40.89;101203.94;4984156;28;6820;-71
2022/03/08 00:25:05;;;;;;;;;;;;;;;4.44;41.26;101208.09;4959779;28;6909;-71
2022/03/08 00:27:31;;;;;;;;;;;;;;;4.41;40.84;101207.84;4984503;28;7047;-71
2022/03/08 00:29:58;;;;;;;;;;;;;;;4.38;40.65;101210.09;4952877;28;7146;-71
2022/03/08 00:32:24;;;;;;;;;;;;;;;4.37;40.67;101215.06;4977118;28;6803;-71
2022/03/08 00:34:50;;;;;;;;;;;;;;;4.33;41.21;101211.38;4969801;28;6962;-71
2022/03/08 00:37:16;;;;;;;;;;;;;;;4.33;41.22;101213.00;4963330;28;7031;-71
2022/03/08 00:39:42;;;;;;;;;;;;;;;4.31;41.14;101221.38;4969341;28;7381;-71
2022/03/08 00:42:12;;;;;;;;;;;;;;;4.28;40.51;101221.13;4965062;28;6792;-71
2022/03/08 00:44:43;;;;;;;;;;;;;;;4.28;40.59;101226.22;4964917;28;6903;-71
2022/03/08 00:47:11;;;;;;;;;;;;;;;4.29;41.15;101227.09;4967114;28;6808;-71
2022/03/08 00:49:39;;;;;;;;;;;;;;;4.29;40.38;101224.53;4967132;28;7394;-71
2022/03/08 00:52:07;;;;;;;;;;;;;;;4.30;41.30;101222.16;4965880;28;6808;-71
2022/03/08 00:54:33;;;;;;;;;;;;;;;4.30;40.48;101224.69;4967931;28;6800;-71
2022/03/08 00:56:59;;;;;;;;;;;;;;;4.32;41.20;101222.28;4965533;28;6921;-71
2022/03/08 00:59:25;;;;;;;;;;;;;;;4.33;40.52;101220.63;4951800;28;7266;-71
2022/03/08 01:01:50;;;;;;;;;;;;;;;4.33;41.21;101218.09;4950082;28;6876;-71
2022/03/08 01:04:17;;;;;;;;;;;;;;;4.31;40.61;101215.44;4975960;28;7045;-71
2022/03/08 01:06:43;;;;;;;;;;;;;;;4.30;40.49;101218.75;4957176;28;6962;-71
2022/03/08 01:09:10;;;;;;;;;;;;;;;4.30;40.14;101214.53;4968839;28;7853;-71
2022/03/08 01:11:39;;;;;;;;;;;;;;;4.30;40.83;101211.13;4967210;28;6824;-71
2022/03/08 01:14:07;;;;;;;;;;;;;;;4.29;40.64;101206.78;4958625;28;6820;-71
2022/03/08 01:16:35;;;;;;;;;;;;;;;4.28;41.03;101205.91;4965485;28;8009;-71
2022/03/08 01:19:02;;;;;;;;;;;;;;;4.28;40.79;101205.00;4983522;28;6820;-71
2022/03/08 01:21:27;;;;;;;;;;;;;;;4.28;40.63;101202.47;4985295;28;7278;-71
2022/03/08 01:23:53;;;;;;;;;;;;;;;4.26;40.61;101198.91;4988156;28;6909;-71
2022/03/08 01:26:19;;;;;;;;;;;;;;;4.27;40.25;101193.06;4967284;28;7264;-71
2022/03/08 01:28:45;;;;;;;;;;;;;;;4.25;41.10;101189.53;4973875;28;6997;-71
2022/03/08 01:31:11;;;;;;;;;;;;;;;4.23;40.51;101186.84;4984795;28;6796;-71
2022/03/08 01:33:36;;;;;;;;;;;;;;;4.20;40.42;101186.59;4963461;28;6820;-71
2022/03/08 01:36:02;;;;;;;;;;;;;;;4.16;40.80;101190.50;4965869;28;7256;-71
2022/03/08 01:38:28;;;;;;;;;;;;;;;4.13;40.66;101196.97;4969302;28;6947;-71
2022/03/08 01:40:54;;;;;;;;;;;;;;;4.08;41.33;101194.03;4960260;28;8769;-70
2022/03/08 01:43:21;;;;;;;;;;;;;;;4.05;41.50;101188.69;4970497;28;7046;-70
2022/03/08 01:45:47;;;;;;;;;;;;;;;3.99;41.33;101191.59;4984069;28;6926;-70
2022/03/08 01:48:13;;;;;;;;;;;;;;;3.93;40.71;101185.97;4985969;28;7203;-70
2022/03/08 01:50:38;;;;;;;;;;;;;;;3.88;41.12;101188.09;4956621;28;7278;-70
2022/03/08 01:53:05;;;;;;;;;;;;;;;3.84;41.53;101182.63;4985663;28;6779;-70
2022/03/08 01:55:31;;;;;;;;;;;;;;;3.81;41.54;101179.81;4977763;28;6999;-70
2022/03/08 01:57:57;;;;;;;;;;;;;;;3.79;41.45;101181.34;4989716;28;7304;-71
2022/03/08 02:00:28;;;;;;;;;;;;;;;3.75;41.83;101170.91;4953094;28;7170;-71
2022/03/08 02:02:54;;;;;;;;;;;;;;;3.76;41.46;101176.88;4971087;28;7091;-71
2022/03/08 02:05:20;;;;;;;;;;;;;;;3.74;41.42;101163.19;4968685;28;6963;-71
2022/03/08 02:07:46;;;;;;;;;;;;;;;3.75;41.58;101157.34;4967831;28;7222;-71
2022/03/08 02:10:12;;;;;;;;;;;;;;;3.77;41.70;101154.94;4990593;28;6887;-70
2022/03/08 02:12:38;;;;;;;;;;;;;;;3.79;42.16;101161.06;4965653;28;6920;-70
2022/03/08 02:15:20;;;;;;;;;;;;;;;3.80;41.88;101155.22;4989462;28;6949;-70
2022/03/08 02:17:46;;;;;;;;;;;;;;;3.81;42.43;101154.47;4970411;28;7384;-70
2022/03/08 02:20:14;;;;;;;;;;;;;;;3.82;41.15;101148.63;4982097;28;6796;-70
2022/03/08 02:22:41;;;;;;;;;;;;;;;3.83;41.44;101148.78;4974696;28;6890;-70
2022/03/08 02:25:10;;;;;;;;;;;;;;;3.84;42.18;101135.34;4971920;28;7539;-70
2022/03/08 02:27:42;;;;;;;;;;;;;;;3.84;42.43;101137.88;4986342;28;6819;-70
2022/03/08 02:30:10;;;;;;;;;;;;;;;3.84;41.57;101131.91;4968205;28;7060;-70
2022/03/08 02:32:37;;;;;;;;;;;;;;;3.83;41.62;101127.59;4954951;28;6815;-70
2022/03/08 02:35:07;;;;;;;;;;;;;;;3.83;42.00;101137.72;4969540;28;7221;-70
2022/03/08 02:37:41;;;;;;;;;;;;;;;3.82;41.87;101133.41;4968724;28;6804;-71
2022/03/08 02:40:10;;;;;;;;;;;;;;;3.82;41.88;101131.78;4970119;28;7011;-71
2022/03/08 02:42:35;;;;;;;;;;;;;;;3.84;42.45;101131.91;4984921;28;7336;-71
2022/03/08 02:45:03;;;;;;;;;;;;;;;3.86;41.26;101128.75;4970518;28;7876;-71
2022/03/08 02:47:29;;;;;;;;;;;;;;;3.84;41.41;101132.81;4966913;28;6831;-71
2022/03/08 02:49:54;;;;;;;;;;;;;;;3.86;41.50;101138.91;4971839;28;6919;-71
2022/03/08 02:52:20;;;;;;;;;;;;;;;3.86;41.22;101133.81;4984886;28;6814;-71
2022/03/08 02:54:45;;;;;;;;;;;;;;;3.86;41.41;101132.91;4984037;28;6788;-71
2022/03/08 02:57:11;;;;;;;;;;;;;;;3.85;42.02;101133.69;4991268;28;7749;-71
2022/03/08 02:59:37;;;;;;;;;;;;;;;3.83;41.71;101127.59;4952876;28;6883;-71
2022/03/08 03:02:03;;;;;;;;;;;;;;;3.82;41.76;101135.97;4968099;28;7269;-71
2022/03/08 03:04:29;;;;;;;;;;;;;;;3.80;41.60;101120.59;4958190;28;7289;-71
2022/03/08 03:06:55;;;;;;;;;;;;;;;3.79;41.91;101115.41;4971254;28;7259;-71
2022/03/08 03:09:21;;;;;;;;;;;;;;;3.80;41.95;101112.13;4988316;28;6796;-71
2022/03/08 03:11:46;;;;;;;;;;;;;;;3.79;41.64;101106.13;4965262;28;6878;-71
2022/03/08 03:14:12;;;;;;;;;;;;;;;3.79;42.20;101107.81;4985389;28;7309;-71
2022/03/08 03:16:38;;;;;;;;;;;;;;;3.79;41.53;101103.59;4969071;28;6797;-71
2022/03/08 03:19:04;;;;;;;;;;;;;;;3.78;41.46;101104.38;4990490;28;7411;-71
2022/03/08 03:21:30;;;;;;;;;;;;;;;3.77;41.73;101106.75;4961198;28;6850;-71
2022/03/08 03:23:56;;;;;;;;;;;;;;;3.75;41.09;101093.97;4988150;28;6807;-71
2022/03/08 03:26:22;;;;;;;;;;;;;;;3.74;42.30;101088.00;4958919;28;6866;-71
2022/03/08 03:28:50;;;;;;;;;;;;;;;3.71;41.17;101092.81;4993308;28;6999;-70
2022/03/08 03:31:17;;;;;;;;;;;;;;;3.66;41.52;101083.91;4988063;28;6819;-70
2022/03/08 03:33:42;;;;;;;;;;;;;;;3.61;41.71;101083.50;4970403;28;6837;-70
2022/03/08 03:36:08;;;;;;;;;;;;;;;3.57;41.30;101085.63;4990185;28;6772;-70
2022/03/08 03:38:35;;;;;;;;;;;;;;;3.52;42.00;101081.81;4990197;28;6980;-70
2022/03/08 03:41:00;;;;;;;;;;;;;;;3.48;41.44;101062.91;4990351;28;8570;-70
2022/03/08 03:43:26;;;;;;;;;;;;;;;3.45;41.77;101065.19;4958553;28;7253;-70
2022/03/08 03:45:52;;;;;;;;;;;;;;;3.41;41.57;101064.03;4976001;28;6796;-70
2022/03/08 03:48:17;;;;;;;;;;;;;;;3.40;42.63;101058.81;4971582;28;6856;-70
2022/03/08 03:50:43;;;;;;;;;;;;;;;3.37;42.22;101059.44;4991098;28;6882;-70
2022/03/08 03:53:09;;;;;;;;;;;;;;;3.34;41.92;101064.25;4971320;28;6788;-70
2022/03/08 03:55:34;;;;;;;;;;;;;;;3.32;42.04;101055.63;4990946;28;6800;-70
2022/03/08 03:58:00;;;;;;;;;;;;;;;3.32;42.84;101053.97;4973366;28;7426;-69
2022/03/08 04:00:27;;;;;;;;;;;;;;;3.32;42.46;101051.44;4972015;28;7557;-69
2022/03/08 04:02:53;;;;;;;;;;;;;;;3.37;42.84;101056.03;4969003;28;7045;-69
2022/03/08 04:05:19;;;;;;;;;;;;;;;3.41;42.61;101053.91;4972338;28;6812;-69
2022/03/08 04:07:45;;;;;;;;;;;;;;;3.44;42.21;101051.63;4968722;28;7043;-69
2022/03/08 04:10:15;;;;;;;;;;;;;;;3.46;42.27;101042.50;4971874;28;6991;-69
2022/03/08 04:12:41;;;;;;;;;;;;;;;3.47;42.99;101041.75;4950308;28;6808;-69
2022/03/08 04:15:08;;;;;;;;;;;;;;;3.50;42.05;101035.19;4988321;28;6804;-69
2022/03/08 04:17:35;;;;;;;;;;;;;;;3.50;42.94;101041.13;4987146;28;7323;-69
2022/03/08 04:20:06;;;;;;;;;;;;;;;3.47;43.23;101036.66;4969660;28;6828;-69
2022/03/08 04:22:32;;;;;;;;;;;;;;;3.46;42.71;101049.22;4955025;28;7264;-69
2022/03/08 04:24:58;;;;;;;;;;;;;;;3.41;42.83;101041.22;4955653;28;7648;-69
2022/03/08 04:27:26;;;;;;;;;;;;;;;3.42;43.01;101039.56;4981455;28;6842;-69
2022/03/08 04:29:52;;;;;;;;;;;;;;;3.39;42.61;101047.81;4965552;28;6941;-69
2022/03/08 04:32:18;;;;;;;;;;;;;;;3.40;43.57;101046.16;4977643;28;6851;-69
2022/03/08 04:34:44;;;;;;;;;;;;;;;3.40;42.82;101043.63;4987148;28;6828;-69
2022/03/08 04:37:10;;;;;;;;;;;;;;;3.40;42.81;101048.69;4970672;28;8292;-69
2022/03/08 04:39:36;;;;;;;;;;;;;;;3.43;42.80;101049.84;4966175;28;6988;-69
2022/03/08 04:42:02;;;;;;;;;;;;;;;3.45;43.17;101053.41;4984057;28;9682;-69
2022/03/08 04:44:28;;;;;;;;;;;;;;;3.47;43.10;101053.53;4988796;28;7031;-70
2022/03/08 04:46:54;;;;;;;;;;;;;;;3.50;43.17;101061.41;4989262;28;7261;-69
2022/03/08 04:49:19;;;;;;;;;;;;;;;3.52;42.40;101048.88;4970738;28;6795;-71
2022/03/08 04:51:45;;;;;;;;;;;;;;;3.54;43.16;101053.31;4986364;28;7004;-71
2022/03/08 04:54:11;;;;;;;;;;;;;;;3.57;42.59;101052.69;4972352;28;6942;-71
2022/03/08 04:56:37;;;;;;;;;;;;;;;3.59;43.34;101046.13;4983621;28;6816;-71
2022/03/08 04:59:04;;;;;;;;;;;;;;;3.61;42.32;101045.47;4973953;28;6894;-71
2022/03/08 05:01:30;;;;;;;;;;;;;;;3.63;42.80;101045.63;4949689;28;6820;-72
2022/03/08 05:03:56;;;;;;;;;;;;;;;3.66;42.42;101053.47;4968899;28;6780;-71
2022/03/08 05:06:21;;;;;;;;;;;;;;;3.68;42.64;101040.94;4969592;28;7802;-71
2022/03/08 05:08:47;;;;;;;;;;;;;;;3.71;42.05;101046.25;4957205;28;6792;-71
2022/03/08 05:11:14;;;;;;;;;;;;;;;3.74;42.81;101042.34;4967691;28;6807;-71
2022/03/08 05:13:40;;;;;;;;;;;;;;;3.78;42.43;101042.63;4966696;28;6899;-72
2022/03/08 05:16:06;;;;;;;;;;;;;;;3.82;42.41;101034.50;4971278;28;8411;-71
2022/03/08 05:18:31;;;;;;;;;;;;;;;3.87;42.15;101035.81;4970356;28;7000;-71
2022/03/08 05:20:57;;;;;;;;;;;;;;;3.89;42.67;101036.81;4986432;28;6788;-72
2022/03/08 05:23:23;;;;;;;;;;;;;;;3.89;42.23;101032.63;4970949;28;6820;-72
2022/03/08 05:25:49;;;;;;;;;;;;;;;3.90;42.38;101028.47;4967303;28;6812;-72
2022/03/08 05:28:15;;;;;;;;;;;;;;;3.91;41.87;101029.31;4987453;28;6804;-72
2022/03/08 05:30:41;;;;;;;;;;;;;;;3.89;42.10;101032.63;4969505;28;7003;-71
2022/03/08 05:33:06;;;;;;;;;;;;;;;3.89;42.75;101030.09;4969861;28;7266;-71
2022/03/08 05:35:32;;;;;;;;;;;;;;;3.88;42.63;101024.91;4984177;28;7001;-71
2022/03/08 05:37:58;;;;;;;;;;;;;;;3.87;41.97;101023.13;4966631;28;6822;-71
2022/03/08 05:40:24;;;;;;;;;;;;;;;3.86;42.81;101027.31;4970872;28;7442;-71
2022/03/08 05:42:50;;;;;;;;;;;;;;;3.84;42.65;101022.84;4963677;28;6902;-71
2022/03/08 05:45:15;;;;;;;;;;;;;;;3.84;43.07;101025.38;4989446;28;6784;-71
2022/03/08 05:47:42;;;;;;;;;;;;;;;3.83;42.23;101023.59;4939653;28;7475;-71
2022/03/08 05:50:11;;;;;;;;;;;;;;;3.82;43.22;101029.44;4988692;28;7345;-71
2022/03/08 05:52:36;;;;;;;;;;;;;;;3.83;42.38;101026.16;4988393;28;7958;-71
2022/03/08 05:55:04;;;;;;;;;;;;;;;3.82;42.23;101034.50;4974483;28;6803;-72
2022/03/08 05:57:30;;;;;;;;;;;;;;;3.79;42.05;101031.72;4964493;28;6823;-71
2022/03/08 05:59:55;;;;;;;;;;;;;;;3.78;43.14;101027.41;4989329;28;7456;-71
2022/03/08 06:02:21;;;;;;;;;;;;;;;3.75;41.97;101033.97;4970182;28;7014;-72
2022/03/08 06:04:47;;;;;;;;;;;;;;;3.73;42.53;101030.44;4992712;28;6934;-72
2022/03/08 06:07:13;;;;;;;;;;;;;;;3.71;42.65;101033.59;4991148;28;7537;-72
2022/03/08 06:09:39;;;;;;;;;;;;;;;3.68;42.78;101036.78;4971147;28;7222;-72
2022/03/08 06:12:06;;;;;;;;;;;;;;;3.69;43.01;101042.72;4986725;28;7056;-72
2022/03/08 06:14:32;;;;;;;;;;;;;;;3.68;42.75;101052.00;4986963;28;7055;-72
2022/03/08 06:16:57;;;;;;;;;;;;;;;3.67;42.62;101057.81;4990017;28;6904;-72
2022/03/08 06:19:24;;;;;;;;;;;;;;;3.67;42.49;101057.81;4990752;28;7151;-70
2022/03/08 06:21:51;;;;;;;;;;;;;;;3.67;42.75;101057.81;4975265;28;6823;-69
2022/03/08 06:24:17;;;;;;;;;;;;;;;3.67;43.24;101055.28;4967592;28;7072;-70
2022/03/08 11:10:12;;;;;;;;;;;;;;;22.21;22.31;100925.06;6109212;23;1250711;-75
2022/03/08 11:12:39;;;;;;;;;;;;;;;22.43;21.96;100925.25;6140718;23;7033;-76
2022/03/08 11:15:07;;;;;;;;;;;;;;;22.60;21.97;100918.44;6167916;23;6778;-76
2022/03/08 11:17:35;;;;;;;;;;;;;;;22.76;21.31;100918.50;6168371;23;6778;-75
2022/03/08 11:20:07;;;;;;;;;;;;;;;22.90;21.58;100915.97;6141969;23;6774;-75
2022/03/08 11:22:34;;;;;;;;;;;;;;;22.98;21.04;100909.03;6167622;23;6790;-75
2022/03/08 11:25:01;;;;;;;;;;;;;;;22.98;21.23;100908.16;6166538;23;7399;-75
2022/03/08 11:27:27;;;;;;;;;;;;;;;23.00;20.63;100909.06;6167988;23;6859;-75
2022/03/08 11:29:53;;;;;;;;;;;;;;;22.92;20.15;100908.16;6169453;23;7046;-75
2022/03/08 11:32:32;;;;;;;;;;;;;;;22.93;20.30;100894.22;6141864;23;6937;-75
2022/03/08 11:35:56;;;;;;;;;;;;;;;22.84;19.84;100901.13;6144560;23;6945;-75
2022/03/08 11:38:22;;;;;;;;;;;;;;;22.76;20.02;100908.06;6077604;23;7374;-76
2022/03/08 11:40:55;;;;;;;;;;;;;;;22.81;19.93;100895.03;6145094;23;6762;-75
2022/03/08 11:43:44;;;;;;;;;;;;;;;23.03;20.24;100899.50;6166633;23;7787;-75
2022/03/08 11:46:18;;;;;;;;;;;;;;;23.26;19.53;100903.03;6142922;23;7190;-76
2022/03/08 11:48:51;;;;;;;;;;;;;;;23.44;19.22;100894.44;6144809;23;7129;-75
2022/03/08 11:51:17;;;;;;;;;;;;;;;23.44;19.41;100897.06;6144565;23;6936;-75
2022/03/08 11:53:46;;;;;;;;;;;;;;;23.43;19.58;100900.53;6143051;23;6766;-76
2022/03/08 11:56:17;;;;;;;;;;;;;;;23.54;19.02;100893.59;6143515;23;6779;-76
2022/03/08 11:58:47;;;;;;;;;;;;;;;23.63;19.15;100887.47;6139021;23;6945;-75
2022/03/08 12:01:36;;;;;;;;;;;;;;;23.72;18.71;100886.63;6136150;23;6922;-75
2022/03/08 12:04:16;;;;;;;;;;;;;;;23.70;18.88;100888.34;6114181;23;6782;-75
2022/03/08 12:06:58;;;;;;;;;;;;;;;23.76;18.50;100885.75;6137826;23;6858;-75
2022/03/08 12:09:25;;;;;;;;;;;;;;;23.90;18.69;100885.75;6135975;23;6783;-75
2022/03/08 12:12:02;;;;;;;;;;;;;;;24.12;18.50;100880.56;6138074;23;6833;-75
2022/03/08 12:14:37;;;;;;;;;;;;;;;24.34;18.70;100872.69;6089166;23;6830;-75
2022/03/08 12:17:19;;;;;;;;;;;;;;;24.40;18.50;100875.28;6113815;23;6766;-75
2022/03/08 12:19:54;;;;;;;;;;;;;;;24.41;18.41;100877.91;6116721;23;6783;-75
2022/03/08 12:22:25;;;;;;;;;;;;;;;24.49;18.40;100869.16;6114037;23;7273;-75
2022/03/08 12:24:59;;;;;;;;;;;;;;;24.50;18.25;100870.91;6137391;23;7438;-75
2022/03/08 12:27:47;;;;;;;;;;;;;;;24.40;18.39;100875.28;6088743;23;6981;-75
2022/03/08 12:30:12;;;;;;;;;;;;;;;24.31;17.67;100870.06;6112913;23;6782;-75
2022/03/08 12:32:44;;;;;;;;;;;;;;;24.25;18.04;100865.72;6113151;23;7287;-75
2022/03/08 12:35:25;;;;;;;;;;;;;;;23.95;18.53;100862.22;6114114;23;6786;-75
2022/03/08 12:37:57;;;;;;;;;;;;;;;22.79;18.64;100865.41;6114358;23;6787;-75
2022/03/08 12:40:37;;;;;;;;;;;;;;;21.40;19.15;100873.84;6114206;23;7065;-75
2022/03/08 12:43:10;;;;;;;;;;;;;;;20.06;19.87;100870.28;6112591;23;6779;-75
2022/03/08 12:45:39;;;;;;;;;;;;;;;18.96;20.42;100869.09;6138094;23;6927;-75
2022/03/08 12:48:10;;;;;;;;;;;;;;;18.12;20.72;100876.72;6137801;23;6779;-75
2022/03/08 12:50:48;;;;;;;;;;;;;;;17.42;21.02;100865.38;6114639;23;6779;-75
2022/03/08 12:53:31;;;;;;;;;;;;;;;16.84;21.41;100867.19;6115681;23;6921;-75
2022/03/08 12:56:09;;;;;;;;;;;;;;;16.45;22.35;100860.81;6115040;23;6958;-75
2022/03/08 12:58:37;;;;;;;;;;;;;;;16.14;22.05;100865.03;6136619;23;7072;-75
2022/03/08 13:01:08;;;;;;;;;;;;;;;15.89;22.08;100857.31;6064425;23;6952;-75
2022/03/08 13:03:40;;;;;;;;;;;;;;;15.66;22.00;100862.59;6137527;23;6778;-75
2022/03/08 13:06:09;;;;;;;;;;;;;;;15.47;22.34;100855.00;6113351;23;6997;-75
2022/03/08 13:08:38;;;;;;;;;;;;;;;15.32;22.53;100856.22;6113311;23;7157;-75
2022/03/08 13:11:10;;;;;;;;;;;;;;;15.24;23.39;100862.81;6113007;23;6795;-75
2022/03/08 13:13:41;;;;;;;;;;;;;;;15.13;23.26;100855.53;6114808;23;6995;-75
2022/03/08 13:16:07;;;;;;;;;;;;;;;15.07;23.02;100850.19;6136606;23;6775;-75
2022/03/08 13:18:38;;;;;;;;;;;;;;;15.02;23.46;100856.88;6138293;23;7155;-75
2022/03/08 13:21:11;;;;;;;;;;;;;;;14.96;23.63;100857.50;6134767;23;7108;-76
2022/03/08 13:23:44;;;;;;;;;;;;;;;14.92;23.48;100852.19;6136974;23;7197;-75
2022/03/08 13:26:10;;;;;;;;;;;;;;;14.85;23.15;100849.34;6115815;23;7233;-75
2022/03/08 13:28:39;;;;;;;;;;;;;;;14.81;23.26;100842.34;6112741;23;6843;-75
2022/03/08 13:31:09;;;;;;;;;;;;;;;14.78;23.87;100847.41;6112694;23;8190;-75
2022/03/08 13:33:43;;;;;;;;;;;;;;;14.75;23.13;100842.09;6137170;23;6783;-75
2022/03/08 13:36:17;;;;;;;;;;;;;;;14.74;23.66;100837.75;6113146;23;6783;-75
2022/03/08 13:38:52;;;;;;;;;;;;;;;14.72;23.43;100841.94;6137680;23;6855;-75
2022/03/08 13:41:27;;;;;;;;;;;;;;;14.71;23.67;100837.63;6136925;23;6775;-75
2022/03/08 13:44:01;;;;;;;;;;;;;;;14.69;23.71;100841.84;6090382;23;7131;-75
2022/03/08 13:46:32;;;;;;;;;;;;;;;14.68;23.57;100848.69;6113129;23;7836;-75
2022/03/08 13:49:01;;;;;;;;;;;;;;;14.69;24.39;100841.84;6114798;23;7291;-75
2022/03/08 13:51:29;;;;;;;;;;;;;;;14.67;24.35;100827.97;6139500;23;7013;-75
2022/03/08 13:53:56;;;;;;;;;;;;;;;14.67;24.81;100834.03;6138807;23;6782;-75
2022/03/08 13:56:24;;;;;;;;;;;;;;;14.64;24.48;100845.94;6115672;23;6782;-75
2022/03/08 13:58:57;;;;;;;;;;;;;;;14.60;24.43;100841.50;6116690;23;6794;-75
2022/03/08 14:01:25;;;;;;;;;;;;;;;14.58;23.78;100839.75;6114528;23;6867;-75
2022/03/08 14:03:59;;;;;;;;;;;;;;;14.60;23.95;100831.19;6090886;23;6959;-75
2022/03/08 14:06:28;;;;;;;;;;;;;;;14.62;24.77;100837.25;6114192;23;8866;-75
2022/03/08 14:08:58;;;;;;;;;;;;;;;14.62;25.06;100835.53;6139288;23;6783;-75
2022/03/08 14:11:26;;;;;;;;;;;;;;;14.64;24.47;100833.03;6116533;23;6782;-75
2022/03/08 14:14:01;;;;;;;;;;;;;;;14.66;24.32;100837.44;6137166;23;6994;-75
2022/03/08 14:16:45;;;;;;;;;;;;;;;14.67;24.09;100827.97;6138363;23;6786;-75
2022/03/08 14:19:18;;;;;;;;;;;;;;;14.66;24.28;100821.06;6113847;23;6783;-75
2022/03/08 14:21:48;;;;;;;;;;;;;;;14.66;24.06;100821.97;6138310;23;6786;-75
2022/03/08 14:24:21;;;;;;;;;;;;;;;14.67;24.76;100833.16;6139302;23;7199;-75
2022/03/08 14:27:02;;;;;;;;;;;;;;;14.63;24.60;100828.69;6114268;23;7189;-75
2022/03/08 14:29:30;;;;;;;;;;;;;;;14.61;24.80;100832.94;6116782;23;6938;-75
2022/03/08 14:31:56;;;;;;;;;;;;;;;14.58;24.61;100834.59;6138175;23;6786;-75
2022/03/08 14:34:29;;;;;;;;;;;;;;;14.57;25.08;100840.53;6138022;23;6786;-75
2022/03/08 14:37:01;;;;;;;;;;;;;;;14.56;24.31;100841.34;6113323;23;7042;-75
2022/03/08 14:39:30;;;;;;;;;;;;;;;14.57;24.44;100837.09;6113239;23;7054;-75
2022/03/08 14:42:02;;;;;;;;;;;;;;;14.56;24.67;100830.19;6113145;23;7046;-75
2022/03/08 14:44:37;;;;;;;;;;;;;;;14.54;25.18;100837.84;6115955;23;6862;-75
2022/03/08 14:47:07;;;;;;;;;;;;;;;14.52;25.35;100829.19;6137880;23;7843;-75
2022/03/08 14:49:35;;;;;;;;;;;;;;;14.51;24.34;100830.00;6136750;23;6775;-74
2022/03/08 14:52:01;;;;;;;;;;;;;;;14.50;25.25;100830.81;6113728;23;7184;-74
2022/03/08 14:54:27;;;;;;;;;;;;;;;14.53;24.72;100830.03;6115511;23;6770;-74
2022/03/08 14:56:53;;;;;;;;;;;;;;;14.58;25.36;100829.41;6114073;23;7150;-74
2022/03/08 14:59:20;;;;;;;;;;;;;;;14.75;25.69;100825.75;6139194;23;6787;-75
2022/03/08 15:01:46;;;;;;;;;;;;;;;15.09;25.46;100832.16;6114246;23;6982;-75
2022/03/08 15:04:12;;;;;;;;;;;;;;;15.55;25.03;100822.59;6135786;23;7020;-76
2022/03/08 15:06:39;;;;;;;;;;;;;;;16.02;24.49;100811.19;6114880;23;6948;-77
2022/03/08 15:09:08;;;;;;;;;;;;;;;16.44;24.05;100815.97;6113888;23;6779;-77
2022/03/08 15:11:36;;;;;;;;;;;;;;;16.82;23.60;100814.50;6113236;23;7586;-77
2022/03/08 15:14:03;;;;;;;;;;;;;;;17.13;23.69;100823.16;6113392;23;6774;-77
2022/03/08 15:16:29;;;;;;;;;;;;;;;17.34;23.42;100804.75;6114250;23;6778;-77
2022/03/08 15:18:55;;;;;;;;;;;;;;;17.52;23.25;100811.22;6116062;23;6826;-77
2022/03/08 15:21:23;;;;;;;;;;;;;;;17.62;22.68;100815.78;6111574;23;6775;-77
2022/03/08 15:23:48;;;;;;;;;;;;;;;17.71;22.69;100820.34;6139291;23;6786;-77
2022/03/08 15:26:15;;;;;;;;;;;;;;;17.78;22.44;100819.69;6113758;23;6759;-77
2022/03/08 15:28:44;;;;;;;;;;;;;;;17.81;22.88;100811.09;6113925;23;6787;-77
2022/03/08 15:31:10;;;;;;;;;;;;;;;17.81;22.91;100811.09;6112283;23;6791;-77
2022/03/08 15:33:37;;;;;;;;;;;;;;;17.85;22.67;100803.41;6135782;23;6870;-77
2022/03/08 15:36:04;;;;;;;;;;;;;;;17.85;22.58;100815.53;6138083;23;6790;-77
2022/03/08 15:38:29;;;;;;;;;;;;;;;17.82;22.91;100816.31;6134852;23;7350;-78
2022/03/08 15:40:55;;;;;;;;;;;;;;;17.72;22.78;100815.22;6116223;23;6794;-77
2022/03/08 15:43:21;;;;;;;;;;;;;;;17.63;23.23;100813.25;6115185;23;6916;-78
2022/03/08 15:45:46;;;;;;;;;;;;;;;17.53;22.69;100826.81;6113517;23;6767;-77
2022/03/08 15:48:12;;;;;;;;;;;;;;;17.40;22.97;100814.38;6116264;23;6855;-77
2022/03/08 15:50:38;;;;;;;;;;;;;;;17.26;23.21;100812.28;6113800;23;6783;-77
2022/03/08 15:53:04;;;;;;;;;;;;;;;17.11;23.04;100814.47;6113495;23;7025;-77
2022/03/08 15:55:31;;;;;;;;;;;;;;;16.98;22.91;100824.44;6113155;23;6940;-77
2022/03/08 15:57:56;;;;;;;;;;;;;;;16.89;23.68;100821.56;6115015;23;6920;-77
2022/03/08 16:00:22;;;;;;;;;;;;;;;16.78;23.71;100824.72;6114721;23;7322;-77
2022/03/08 16:02:48;;;;;;;;;;;;;;;16.69;23.57;100829.63;6112178;23;6858;-77
2022/03/08 16:05:15;;;;;;;;;;;;;;;16.58;24.00;100831.03;6088966;23;6838;-77
2022/03/08 16:07:40;;;;;;;;;;;;;;;16.42;23.72;100819.34;6114994;23;6933;-77
2022/03/08 16:10:07;;;;;;;;;;;;;;;16.27;23.62;100835.28;6114275;23;6914;-77
2022/03/08 16:12:32;;;;;;;;;;;;;;;16.05;24.31;100839.75;6112908;23;7102;-77
2022/03/08 16:14:58;;;;;;;;;;;;;;;15.85;24.83;100841.63;6113537;23;6790;-77
2022/03/08 16:17:24;;;;;;;;;;;;;;;15.66;24.80;100838.44;6107208;23;6770;-77
2022/03/08 16:19:49;;;;;;;;;;;;;;;15.45;24.69;100844.63;6109780;23;6794;-78
2022/03/08 16:22:15;;;;;;;;;;;;;;;15.27;24.60;100852.59;6111098;23;7310;-77
2022/03/08 16:24:42;;;;;;;;;;;;;;;15.06;25.21;100845.81;6105886;23;6790;-77
2022/03/08 16:27:09;;;;;;;;;;;;;;;14.89;25.50;100847.78;6079269;23;6951;-77
2022/03/08 16:29:35;;;;;;;;;;;;;;;14.70;25.61;100853.94;6134306;23;7127;-77
2022/03/08 16:32:02;;;;;;;;;;;;;;;14.53;25.06;100859.31;6135144;23;6770;-77
2022/03/08 16:34:28;;;;;;;;;;;;;;;14.35;25.93;100862.03;6085391;23;7051;-77
2022/03/08 16:36:54;;;;;;;;;;;;;;;14.19;25.43;100870.84;6108332;23;6867;-77
2022/03/08 16:39:20;;;;;;;;;;;;;;;13.98;25.95;100866.56;6111072;23;7220;-77
2022/03/08 16:41:49;;;;;;;;;;;;;;;13.79;25.59;100870.06;6111696;23;6864;-77
2022/03/08 16:44:16;;;;;;;;;;;;;;;13.61;26.87;100875.31;6135342;23;6951;-77
2022/03/08 16:46:41;;;;;;;;;;;;;;;13.46;26.65;100880.66;6135442;23;6878;-77
2022/03/08 16:49:08;;;;;;;;;;;;;;;13.31;26.51;100883.41;6110020;23;6818;-75
2022/03/08 16:51:34;;;;;;;;;;;;;;;13.17;27.16;100878.53;6133707;23;6814;-75
2022/03/08 16:54:00;;;;;;;;;;;;;;;13.04;26.91;100884.81;6109669;23;6982;-75
2022/03/08 16:56:27;;;;;;;;;;;;;;;12.92;27.04;100884.28;6105767;23;6982;-75
2022/03/08 16:58:53;;;;;;;;;;;;;;;12.82;26.97;100885.53;6101094;23;6952;-75
2022/03/08 17:01:19;;;;;;;;;;;;;;;12.72;27.64;100889.38;6105871;23;6984;-76
2022/03/08 17:03:45;;;;;;;;;;;;;;;12.60;27.69;100887.09;6105984;23;6787;-76
2022/03/08 17:06:11;;;;;;;;;;;;;;;12.48;27.31;100879.66;6109373;23;7134;-76
2022/03/08 17:08:36;;;;;;;;;;;;;;;12.40;27.35;100885.25;6085925;23;6889;-76
2022/03/08 17:11:03;;;;;;;;;;;;;;;12.32;28.05;100896.03;6108553;23;7335;-75
2022/03/08 17:13:29;;;;;;;;;;;;;;;12.24;27.92;100888.78;6135799;23;6791;-75
2022/03/08 17:15:55;;;;;;;;;;;;;;;12.15;27.66;100899.47;6106372;23;6783;-75
2022/03/08 17:18:21;;;;;;;;;;;;;;;12.08;28.07;100898.28;6085164;23;6782;-76
2022/03/08 17:20:47;;;;;;;;;;;;;;;11.99;28.33;100901.25;6086208;23;6858;-76
2022/03/08 17:23:12;;;;;;;;;;;;;;;11.91;28.65;100902.56;6084006;23;7250;-76
2022/03/08 17:25:39;;;;;;;;;;;;;;;11.81;28.30;100903.75;6086534;23;6779;-76
2022/03/08 17:28:05;;;;;;;;;;;;;;;11.72;28.72;100909.31;6081617;23;6803;-75
2022/03/08 17:30:31;;;;;;;;;;;;;;;11.64;28.79;100913.16;6104422;23;6937;-75
2022/03/08 17:32:57;;;;;;;;;;;;;;;11.57;28.52;100913.66;6082965;23;6770;-75
2022/03/08 17:35:24;;;;;;;;;;;;;;;11.47;28.78;100918.31;6082469;23;6794;-75
2022/03/08 17:37:50;;;;;;;;;;;;;;;11.41;29.03;100924.81;6080976;23;6802;-75
2022/03/08 17:40:16;;;;;;;;;;;;;;;11.31;29.32;100926.88;6084393;23;6787;-75